createdAt,value
2019-05-06T00:00:59.181Z,15.80
2019-05-06T00:01:54.862Z,20.40
2019-05-06T00:02:54.499Z,14.50
2019-05-06T00:03:54.274Z,16.20
2019-05-06T00:04:54.198Z,17.80
2019-05-06T00:05:54.283Z,15.60
2019-05-06T00:06:54.767Z,17.30
2019-05-06T00:07:54.447Z,15.10
2019-05-06T00:08:54.577Z,19.30
2019-05-06T00:09:54.014Z,20.10
2019-05-06T00:10:54.280Z,21.80
2019-05-06T00:11:54.459Z,16.30
2019-05-06T00:12:53.658Z,17.40
2019-05-06T00:13:54.325Z,16.40
2019-05-06T00:14:54.197Z,22.60
2019-05-06T00:15:54.409Z,17.90
2019-05-06T00:16:55.074Z,25.30
2019-05-06T00:17:54.037Z,17.40
2019-05-06T00:18:54.172Z,17.90
2019-05-06T00:19:54.358Z,18.00
2019-05-06T00:20:57.179Z,19.10
2019-05-06T00:21:54.031Z,18.80
2019-05-06T00:22:54.578Z,19.80
2019-05-06T00:23:54.702Z,18.10
2019-05-06T00:24:54.736Z,17.20
2019-05-06T00:25:53.597Z,17.70
2019-05-06T00:26:57.202Z,18.00
2019-05-06T00:27:54.447Z,15.20
2019-05-06T00:28:53.929Z,15.90
2019-05-06T00:29:54.945Z,19.40
2019-05-06T00:30:55.850Z,18.90
2019-05-06T00:31:54.402Z,17.70
2019-05-06T00:32:53.898Z,19.60
2019-05-06T00:33:54.035Z,18.60
2019-05-06T00:34:54.667Z,21.00
2019-05-06T00:35:53.834Z,22.20
2019-05-06T00:36:54.509Z,20.50
2019-05-06T00:37:53.690Z,23.10
2019-05-06T00:38:53.949Z,21.90
2019-05-06T00:39:53.932Z,21.50
2019-05-06T00:40:54.319Z,20.10
2019-05-06T00:41:54.188Z,23.80
2019-05-06T00:42:54.236Z,20.30
2019-05-06T00:43:54.597Z,21.60
2019-05-06T00:44:53.716Z,21.40
2019-05-06T00:45:53.762Z,20.50
2019-05-06T00:46:54.603Z,20.30
2019-05-06T00:47:53.631Z,22.60
2019-05-06T00:48:54.284Z,22.50
2019-05-06T00:49:54.608Z,24.60
2019-05-06T00:50:53.649Z,26.60
2019-05-06T00:51:55.030Z,23.10
2019-05-06T00:52:53.947Z,26.00
2019-05-06T00:53:54.386Z,24.00
2019-05-06T00:54:54.656Z,22.20
2019-05-06T00:55:53.826Z,21.30
2019-05-06T00:56:54.121Z,26.30
2019-05-06T00:57:54.496Z,25.30
2019-05-06T00:58:54.416Z,22.80
2019-05-06T00:59:53.880Z,25.90
2019-05-06T01:00:53.800Z,25.40
2019-05-06T01:01:53.865Z,24.10
2019-05-06T01:02:54.245Z,28.30
2019-05-06T01:03:53.706Z,24.90
2019-05-06T01:04:54.159Z,25.50
2019-05-06T01:05:54.214Z,31.30
2019-05-06T01:06:54.524Z,28.00
2019-05-06T01:07:54.904Z,30.80
2019-05-06T01:08:54.436Z,30.20
2019-05-06T01:09:54.165Z,27.30
2019-05-06T01:10:54.421Z,27.90
2019-05-06T01:11:54.184Z,29.00
2019-05-06T01:12:54.445Z,26.10
2019-05-06T01:13:54.491Z,32.30
2019-05-06T01:14:54.530Z,29.00
2019-05-06T01:15:54.711Z,27.80
2019-05-06T01:16:54.757Z,27.60
2019-05-06T01:17:53.841Z,25.70
2019-05-06T01:18:54.163Z,24.00
2019-05-06T01:19:54.132Z,26.10
2019-05-06T01:20:54.138Z,28.20
2019-05-06T01:21:53.997Z,27.60
2019-05-06T01:22:54.429Z,28.60
2019-05-06T01:23:54.486Z,28.80
2019-05-06T01:24:52.832Z,31.90
2019-05-06T01:25:54.583Z,27.00
2019-05-06T01:26:53.669Z,31.10
2019-05-06T01:27:54.013Z,32.20
2019-05-06T01:28:54.531Z,31.50
2019-05-06T01:29:54.441Z,27.70
2019-05-06T01:30:53.545Z,27.60
2019-05-06T01:31:54.389Z,28.00
2019-05-06T01:32:54.365Z,24.60
2019-05-06T01:33:53.634Z,27.60
2019-05-06T01:34:53.743Z,27.70
2019-05-06T01:35:54.163Z,24.90
2019-05-06T01:36:54.577Z,32.90
2019-05-06T01:37:54.570Z,28.80
2019-05-06T01:38:53.530Z,27.60
2019-05-06T01:39:54.192Z,28.50
2019-05-06T01:40:54.602Z,25.70
2019-05-06T01:41:53.679Z,28.60
2019-05-06T01:42:54.078Z,30.40
2019-05-06T01:43:54.504Z,27.40
2019-05-06T01:44:53.854Z,27.60
2019-05-06T01:45:53.708Z,25.40
2019-05-06T01:46:54.180Z,28.30
2019-05-06T01:47:54.407Z,30.10
2019-05-06T01:48:53.609Z,27.20
2019-05-06T01:49:53.795Z,29.80
2019-05-06T01:50:54.023Z,30.60
2019-05-06T01:51:54.516Z,26.80
2019-05-06T01:52:53.981Z,25.50
2019-05-06T01:53:54.472Z,28.60
2019-05-06T01:54:54.200Z,26.70
2019-05-06T01:55:54.470Z,30.60
2019-05-06T01:56:53.786Z,29.10
2019-05-06T01:57:54.451Z,30.90
2019-05-06T01:58:53.583Z,26.10
2019-05-06T01:59:54.011Z,27.40
2019-05-06T02:00:54.458Z,28.30
2019-05-06T02:01:59.219Z,38.10
2019-05-06T02:02:54.771Z,28.70
2019-05-06T02:03:53.792Z,35.20
2019-05-06T02:04:54.102Z,26.20
2019-05-06T02:05:53.996Z,26.90
2019-05-06T02:06:54.356Z,27.30
2019-05-06T02:07:54.896Z,30.10
2019-05-06T02:08:54.006Z,30.70
2019-05-06T02:09:54.286Z,33.00
2019-05-06T02:10:54.397Z,26.30
2019-05-06T02:11:53.622Z,30.40
2019-05-06T02:12:54.097Z,28.00
2019-05-06T02:13:53.789Z,26.80
2019-05-06T02:14:54.196Z,31.10
2019-05-06T02:15:54.601Z,28.30
2019-05-06T02:16:54.351Z,30.50
2019-05-06T02:17:52.282Z,28.40
2019-05-06T02:18:54.036Z,29.30
2019-05-06T02:19:54.452Z,28.80
2019-05-06T02:20:53.808Z,27.40
2019-05-06T02:21:54.107Z,22.70
2019-05-06T02:22:53.847Z,25.20
2019-05-06T02:23:53.532Z,28.30
2019-05-06T02:24:53.598Z,26.70
2019-05-06T02:25:53.986Z,26.00
2019-05-06T02:26:53.733Z,26.40
2019-05-06T02:27:54.170Z,24.40
2019-05-06T02:28:54.043Z,29.40
2019-05-06T02:29:54.192Z,25.70
2019-05-06T02:30:54.530Z,22.10
2019-05-06T02:31:54.614Z,22.10
2019-05-06T02:32:55.409Z,23.60
2019-05-06T02:33:55.475Z,23.00
2019-05-06T02:34:54.561Z,22.60
2019-05-06T02:35:54.884Z,23.20
2019-05-06T02:36:54.943Z,25.80
2019-05-06T02:37:54.766Z,26.40
2019-05-06T02:38:55.495Z,24.80
2019-05-06T02:39:53.290Z,25.70
2019-05-06T02:40:53.559Z,25.60
2019-05-06T02:41:54.583Z,26.10
2019-05-06T02:42:54.604Z,26.10
2019-05-06T02:43:54.188Z,21.00
2019-05-06T02:44:54.166Z,23.30
2019-05-06T02:45:53.144Z,24.60
2019-05-06T02:46:53.357Z,26.70
2019-05-06T02:47:53.740Z,26.50
2019-05-06T02:48:54.259Z,23.00
2019-05-06T02:49:53.432Z,23.20
2019-05-06T02:50:53.739Z,21.30
2019-05-06T02:51:53.567Z,24.40
2019-05-06T02:52:53.809Z,27.10
2019-05-06T02:53:53.797Z,22.30
2019-05-06T02:54:53.751Z,26.20
2019-05-06T02:55:53.168Z,28.90
2019-05-06T02:56:53.210Z,27.50
2019-05-06T02:57:53.639Z,25.70
2019-05-06T02:58:53.512Z,22.80
2019-05-06T02:59:55.365Z,22.60
2019-05-06T03:00:53.869Z,20.90
2019-05-06T03:01:53.779Z,22.00
2019-05-06T03:02:54.208Z,21.70
2019-05-06T03:03:53.587Z,23.70
2019-05-06T03:04:52.922Z,27.60
2019-05-06T03:05:53.283Z,22.30
2019-05-06T03:06:53.266Z,24.50
2019-05-06T03:07:57.038Z,23.70
2019-05-06T03:08:54.098Z,22.30
2019-05-06T03:09:53.219Z,23.30
2019-05-06T03:10:53.409Z,24.40
2019-05-06T03:11:53.932Z,23.60
2019-05-06T03:12:53.721Z,25.90
2019-05-06T03:13:53.750Z,22.80
2019-05-06T03:14:53.307Z,25.50
2019-05-06T03:15:54.047Z,22.00
2019-05-06T03:16:53.849Z,20.90
2019-05-06T03:17:55.088Z,22.00
2019-05-06T03:18:53.174Z,20.00
2019-05-06T03:19:52.733Z,25.10
2019-05-06T03:20:53.289Z,23.00
2019-05-06T03:21:54.068Z,24.40
2019-05-06T03:22:54.351Z,24.30
2019-05-06T03:23:54.234Z,24.60
2019-05-06T03:24:54.208Z,22.20
2019-05-06T03:25:53.309Z,25.90
2019-05-06T03:26:53.374Z,21.30
2019-05-06T03:27:53.202Z,24.10
2019-05-06T03:28:53.547Z,22.00
2019-05-06T03:29:53.694Z,23.60
2019-05-06T03:30:55.847Z,23.20
2019-05-06T03:31:56.299Z,23.70
2019-05-06T03:33:23.405Z,23.30
2019-05-06T03:34:16.080Z,22.50
2019-05-06T03:35:15.950Z,24.20
2019-05-06T03:36:06.283Z,25.80
2019-05-06T03:36:56.204Z,23.60
2019-05-06T03:37:53.363Z,28.20
2019-05-06T03:38:53.578Z,21.00
2019-05-06T03:39:52.864Z,24.90
2019-05-06T03:40:53.815Z,25.40
2019-05-06T03:41:53.677Z,21.50
2019-05-06T03:42:53.879Z,21.80
2019-05-06T03:43:54.035Z,24.40
2019-05-06T03:44:53.266Z,23.10
2019-05-06T03:45:53.680Z,24.00
2019-05-06T03:46:53.904Z,26.60
2019-05-06T03:47:54.090Z,21.70
2019-05-06T03:48:53.045Z,27.80
2019-05-06T03:49:54.546Z,27.00
2019-05-06T03:50:55.468Z,23.00
2019-05-06T03:51:55.973Z,25.00
2019-05-06T03:52:56.050Z,26.50
2019-05-06T03:53:54.030Z,24.00
2019-05-06T03:54:53.599Z,22.70
2019-05-06T03:55:53.738Z,25.00
2019-05-06T03:56:53.730Z,21.90
2019-05-06T03:57:53.899Z,25.90
2019-05-06T03:58:53.643Z,25.10
2019-05-06T03:59:52.887Z,23.40
2019-05-06T04:00:53.133Z,26.70
2019-05-06T04:01:53.432Z,23.20
2019-05-06T04:02:53.624Z,24.40
2019-05-06T04:03:53.704Z,24.60
2019-05-06T04:04:55.890Z,26.50
2019-05-06T04:05:52.526Z,21.40
2019-05-06T04:06:53.811Z,25.70
2019-05-06T04:07:52.997Z,28.30
2019-05-06T04:08:52.870Z,26.80
2019-05-06T04:09:53.567Z,24.50
2019-05-06T04:10:53.763Z,22.80
2019-05-06T04:11:53.900Z,24.60
2019-05-06T04:12:53.634Z,19.60
2019-05-06T04:13:53.419Z,21.30
2019-05-06T04:14:53.951Z,21.20
2019-05-06T04:15:53.798Z,22.80
2019-05-06T04:16:53.196Z,22.40
2019-05-06T04:17:53.558Z,23.10
2019-05-06T04:18:53.895Z,23.10
2019-05-06T04:19:53.493Z,23.40
2019-05-06T04:20:53.146Z,20.40
2019-05-06T04:21:53.079Z,19.50
2019-05-06T04:22:53.118Z,23.30
2019-05-06T04:23:53.426Z,22.80
2019-05-06T04:24:53.686Z,22.50
2019-05-06T04:25:52.742Z,23.60
2019-05-06T04:26:53.422Z,24.20
2019-05-06T04:27:53.483Z,23.00
2019-05-06T04:28:53.395Z,23.70
2019-05-06T04:29:50.892Z,24.20
2019-05-06T04:30:50.905Z,24.30
2019-05-06T04:31:53.704Z,20.80
2019-05-06T04:32:53.163Z,18.90
2019-05-06T04:34:08.691Z,19.70
2019-05-06T04:34:53.508Z,21.00
2019-05-06T04:35:53.791Z,20.60
2019-05-06T04:36:53.363Z,21.50
2019-05-06T04:37:53.531Z,23.50
2019-05-06T04:38:53.681Z,23.70
2019-05-06T04:39:53.169Z,19.80
2019-05-06T04:40:53.532Z,24.00
2019-05-06T04:41:53.617Z,20.20
2019-05-06T04:42:52.812Z,18.60
2019-05-06T04:43:53.136Z,21.90
2019-05-06T04:44:53.137Z,24.30
2019-05-06T04:45:53.715Z,18.90
2019-05-06T04:46:54.079Z,22.40
2019-05-06T04:47:53.499Z,18.10
2019-05-06T04:48:53.587Z,18.30
2019-05-06T04:49:53.254Z,18.00
2019-05-06T04:50:53.346Z,18.70
2019-05-06T04:51:53.849Z,18.60
2019-05-06T04:52:53.511Z,21.20
2019-05-06T04:53:53.420Z,22.20
2019-05-06T04:54:53.197Z,17.30
2019-05-06T04:55:53.652Z,19.60
2019-05-06T04:56:53.543Z,19.40
2019-05-06T04:57:53.444Z,19.20
2019-05-06T04:58:53.563Z,26.10
2019-05-06T04:59:50.575Z,17.40
2019-05-06T05:00:53.073Z,18.00
2019-05-06T05:01:53.196Z,20.40
2019-05-06T05:02:50.546Z,20.30
2019-05-06T05:03:53.556Z,21.80
2019-05-06T05:04:52.827Z,21.10
2019-05-06T05:05:53.066Z,22.80
2019-05-06T05:06:52.418Z,21.70
2019-05-06T05:07:52.839Z,20.50
2019-05-06T05:08:53.027Z,22.20
2019-05-06T05:09:50.469Z,23.70
2019-05-06T05:10:52.836Z,19.90
2019-05-06T05:11:53.015Z,23.70
2019-05-06T05:12:52.555Z,20.00
2019-05-06T05:13:52.971Z,19.70
2019-05-06T05:14:51.971Z,20.10
2019-05-06T05:15:52.418Z,21.60
2019-05-06T05:16:50.419Z,20.50
2019-05-06T05:17:52.497Z,20.90
2019-05-06T05:18:50.361Z,21.20
2019-05-06T05:19:52.267Z,20.40
2019-05-06T05:20:50.339Z,20.10
2019-05-06T05:21:52.196Z,24.40
2019-05-06T05:22:50.327Z,22.40
2019-05-06T05:23:52.253Z,22.00
2019-05-06T05:24:52.164Z,21.40
2019-05-06T05:25:52.136Z,21.20
2019-05-06T05:26:52.191Z,22.80
2019-05-06T05:27:50.276Z,23.20
2019-05-06T05:28:50.293Z,20.70
2019-05-06T05:29:52.053Z,21.50
2019-05-06T05:30:52.071Z,22.30
2019-05-06T05:31:50.239Z,24.00
2019-05-06T05:32:52.031Z,22.80
2019-05-06T05:33:52.462Z,21.30
2019-05-06T05:34:52.110Z,25.50
2019-05-06T05:35:52.387Z,20.70
2019-05-06T05:36:51.968Z,21.20
2019-05-06T05:37:50.170Z,19.10
2019-05-06T05:38:52.258Z,21.70
2019-05-06T05:39:52.004Z,19.90
2019-05-06T05:40:52.224Z,19.70
2019-05-06T05:41:52.027Z,19.00
2019-05-06T05:42:52.099Z,23.20
2019-05-06T05:43:50.109Z,21.90
2019-05-06T05:44:50.095Z,23.10
2019-05-06T05:45:52.195Z,22.30
2019-05-06T05:46:51.912Z,17.70
2019-05-06T05:47:52.184Z,22.60
2019-05-06T05:48:51.995Z,20.40
2019-05-06T05:49:50.045Z,21.70
2019-05-06T05:50:51.963Z,24.70
2019-05-06T05:51:51.931Z,22.40
2019-05-06T05:52:51.942Z,20.90
2019-05-06T05:53:51.837Z,23.00
2019-05-06T05:54:52.240Z,20.40
2019-05-06T05:55:49.982Z,17.80
2019-05-06T05:56:49.996Z,23.30
2019-05-06T05:57:51.817Z,15.70
2019-05-06T05:58:49.953Z,20.60
2019-05-06T05:59:49.974Z,18.20
2019-05-06T06:00:51.995Z,19.80
2019-05-06T06:01:49.969Z,21.40
2019-05-06T06:02:52.859Z,20.30
2019-05-06T06:03:49.898Z,17.90
2019-05-06T06:04:54.822Z,18.90
2019-05-06T06:05:52.064Z,18.10
2019-05-06T06:06:51.851Z,21.40
2019-05-06T06:07:49.870Z,17.50
2019-05-06T06:08:52.110Z,22.20
2019-05-06T06:09:49.827Z,17.20
2019-05-06T06:10:52.226Z,20.30
2019-05-06T06:11:49.813Z,17.00
2019-05-06T06:12:49.816Z,17.60
2019-05-06T06:13:49.790Z,20.70
2019-05-06T06:14:52.526Z,18.20
2019-05-06T06:15:52.148Z,16.30
2019-05-06T06:16:49.755Z,18.10
2019-05-06T06:17:51.437Z,16.80
2019-05-06T06:18:49.745Z,19.60
2019-05-06T06:19:49.722Z,16.60
2019-05-06T06:20:49.717Z,17.50
2019-05-06T06:21:49.703Z,18.00
2019-05-06T06:22:52.146Z,17.90
2019-05-06T06:23:49.692Z,18.30
2019-05-06T06:24:49.677Z,16.10
2019-05-06T06:25:49.659Z,20.90
2019-05-06T06:26:49.650Z,19.30
2019-05-06T06:27:51.919Z,17.20
2019-05-06T06:28:49.627Z,16.40
2019-05-06T06:29:49.608Z,19.40
2019-05-06T06:30:49.607Z,18.20
2019-05-06T06:31:49.596Z,18.10
2019-05-06T06:32:49.641Z,17.80
2019-05-06T06:33:49.564Z,19.00
2019-05-06T06:34:51.994Z,17.40
2019-05-06T06:35:51.511Z,20.70
2019-05-06T06:36:49.548Z,15.60
2019-05-06T06:37:49.561Z,14.90
2019-05-06T06:38:49.525Z,18.90
2019-05-06T06:39:49.503Z,16.40
2019-05-06T06:40:49.526Z,15.40
2019-05-06T06:41:49.493Z,15.50
2019-05-06T06:42:49.483Z,19.00
2019-05-06T06:43:49.471Z,16.10
2019-05-06T06:44:49.464Z,16.60
2019-05-06T06:45:49.476Z,17.20
2019-05-06T06:46:49.444Z,20.70
2019-05-06T06:47:49.450Z,15.60
2019-05-06T06:48:49.419Z,15.50
2019-05-06T06:49:49.408Z,15.50
2019-05-06T06:50:49.397Z,15.90
2019-05-06T06:51:49.388Z,17.90
2019-05-06T06:52:49.403Z,19.10
2019-05-06T06:53:49.366Z,18.90
2019-05-06T06:54:49.357Z,14.80
2019-05-06T06:55:49.344Z,16.40
2019-05-06T06:57:03.210Z,15.50
2019-05-06T06:57:51.899Z,20.00
2019-05-06T06:58:49.317Z,15.60
2019-05-06T06:59:49.303Z,17.40
2019-05-06T07:00:49.294Z,19.20
2019-05-06T07:01:49.279Z,19.20
2019-05-06T07:02:49.307Z,17.30
2019-05-06T07:03:49.264Z,17.60
2019-05-06T07:04:49.248Z,18.30
2019-05-06T07:05:49.243Z,18.80
2019-05-06T07:06:49.235Z,16.10
2019-05-06T07:07:49.250Z,18.20
2019-05-06T07:08:49.207Z,17.50
2019-05-06T07:09:49.210Z,17.70
2019-05-06T07:10:49.183Z,17.30
2019-05-06T07:11:49.175Z,13.90
2019-05-06T07:12:49.189Z,18.00
2019-05-06T07:13:49.155Z,15.10
2019-05-06T07:14:49.151Z,19.60
2019-05-06T07:15:49.135Z,15.30
2019-05-06T07:16:49.123Z,17.00
2019-05-06T07:17:49.130Z,19.50
2019-05-06T07:18:49.097Z,17.90
2019-05-06T07:19:49.085Z,18.50
2019-05-06T07:20:49.071Z,19.20
2019-05-06T07:21:49.063Z,17.10
2019-05-06T07:22:49.080Z,18.30
2019-05-06T07:23:49.048Z,18.00
2019-05-06T07:24:49.033Z,21.50
2019-05-06T07:25:49.021Z,20.70
2019-05-06T07:26:49.010Z,16.20
2019-05-06T07:27:49.024Z,17.80
2019-05-06T07:28:48.991Z,18.10
2019-05-06T07:29:48.988Z,18.60
2019-05-06T07:30:48.972Z,17.40
2019-05-06T07:31:48.985Z,16.20
2019-05-06T07:32:48.947Z,18.10
2019-05-06T07:33:48.939Z,18.60
2019-05-06T07:34:48.928Z,17.30
2019-05-06T07:35:48.915Z,19.30
2019-05-06T07:36:48.929Z,18.60
2019-05-06T07:37:48.892Z,16.80
2019-05-06T07:38:48.885Z,18.60
2019-05-06T07:39:48.877Z,16.70
2019-05-06T07:40:48.870Z,16.70
2019-05-06T07:41:48.884Z,16.00
2019-05-06T07:42:48.872Z,19.60
2019-05-06T07:43:48.833Z,16.80
2019-05-06T07:44:48.821Z,17.80
2019-05-06T07:45:48.812Z,19.20
2019-05-06T07:46:48.828Z,19.40
2019-05-06T07:47:48.793Z,15.00
2019-05-06T07:48:48.779Z,15.70
2019-05-06T07:49:48.770Z,15.30
2019-05-06T07:50:49.261Z,17.00
2019-05-06T07:51:48.767Z,17.60
2019-05-06T07:52:48.739Z,15.30
2019-05-06T07:53:48.721Z,16.30
2019-05-06T07:54:48.781Z,15.10
2019-05-06T07:55:48.700Z,16.60
2019-05-06T07:56:48.731Z,15.40
2019-05-06T07:57:50.584Z,13.50
2019-05-06T07:58:48.662Z,14.60
2019-05-06T07:59:48.668Z,17.30
2019-05-06T08:00:48.647Z,14.50
2019-05-06T08:01:48.683Z,14.80
2019-05-06T08:02:48.617Z,15.50
2019-05-06T08:03:48.633Z,14.90
2019-05-06T08:04:48.602Z,16.40
2019-05-06T08:05:55.723Z,16.70
2019-05-06T08:06:49.610Z,14.50
2019-05-06T08:07:48.580Z,16.20
2019-05-06T08:08:48.565Z,16.60
2019-05-06T08:09:48.556Z,14.30
2019-05-06T08:10:48.542Z,14.80
2019-05-06T08:11:48.534Z,13.50
2019-05-06T08:12:48.545Z,16.10
2019-05-06T08:13:48.524Z,17.80
2019-05-06T08:14:48.497Z,14.20
2019-05-06T08:15:48.493Z,16.90
2019-05-06T08:16:48.476Z,15.10
2019-05-06T08:17:48.492Z,14.30
2019-05-06T08:18:48.460Z,15.10
2019-05-06T08:19:48.448Z,17.90
2019-05-06T08:20:48.440Z,14.40
2019-05-06T08:21:48.423Z,15.40
2019-05-06T08:22:48.435Z,17.10
2019-05-06T08:23:48.407Z,16.30
2019-05-06T08:24:48.388Z,15.40
2019-05-06T08:25:48.376Z,17.10
2019-05-06T08:26:48.365Z,15.00
2019-05-06T08:27:49.609Z,16.50
2019-05-06T08:28:48.341Z,15.10
2019-05-06T08:29:48.338Z,14.80
2019-05-06T08:30:48.324Z,15.30
2019-05-06T08:31:48.325Z,14.70
2019-05-06T08:32:48.327Z,16.00
2019-05-06T08:33:48.291Z,13.10
2019-05-06T08:34:48.283Z,13.70
2019-05-06T08:35:48.268Z,13.90
2019-05-06T08:36:48.266Z,14.20
2019-05-06T08:37:48.278Z,15.10
2019-05-06T08:38:48.237Z,16.70
2019-05-06T08:39:48.231Z,13.30
2019-05-06T08:40:48.218Z,13.90
2019-05-06T08:41:48.206Z,13.60
2019-05-06T08:42:48.281Z,12.40
2019-05-06T08:43:48.184Z,13.20
2019-05-06T08:44:48.172Z,12.40
2019-05-06T08:45:48.165Z,13.80
2019-05-06T08:46:48.154Z,13.80
2019-05-06T08:47:48.170Z,12.40
2019-05-06T08:48:48.130Z,13.20
2019-05-06T08:49:49.381Z,13.00
2019-05-06T08:50:48.105Z,11.60
2019-05-06T08:51:48.098Z,12.10
2019-05-06T08:52:48.112Z,14.40
2019-05-06T08:53:48.075Z,13.00
2019-05-06T08:54:48.067Z,11.30
2019-05-06T08:55:48.051Z,10.60
2019-05-06T08:56:48.049Z,13.30
2019-05-06T08:57:48.072Z,12.80
2019-05-06T08:58:48.015Z,12.20
2019-05-06T08:59:48.005Z,11.10
2019-05-06T09:00:48.010Z,13.40
2019-05-06T09:01:47.991Z,11.10
2019-05-06T09:02:47.974Z,9.70
2019-05-06T09:03:47.996Z,14.20
2019-05-06T09:04:47.953Z,12.70
2019-05-06T09:05:47.943Z,12.20
2019-05-06T09:06:47.936Z,11.60
2019-05-06T09:07:47.913Z,13.50
2019-05-06T09:08:47.973Z,11.00
2019-05-06T09:09:47.899Z,13.00
2019-05-06T09:10:47.887Z,13.50
2019-05-06T09:11:47.916Z,15.70
2019-05-06T09:12:47.860Z,14.80
2019-05-06T09:13:47.965Z,11.30
2019-05-06T09:14:47.843Z,9.90
2019-05-06T09:15:47.824Z,10.60
2019-05-06T09:16:50.659Z,11.60
2019-05-06T09:17:48.815Z,10.10
2019-05-06T09:18:47.839Z,9.80
2019-05-06T09:19:47.797Z,10.10
2019-05-06T09:20:47.776Z,11.10
2019-05-06T09:21:47.772Z,10.60
2019-05-06T09:22:47.765Z,8.40
2019-05-06T09:23:47.781Z,11.30
2019-05-06T09:24:47.743Z,10.10
2019-05-06T09:25:47.728Z,10.20
2019-05-06T09:26:47.718Z,8.80
2019-05-06T09:27:47.715Z,11.20
2019-05-06T09:28:47.710Z,10.20
2019-05-06T09:29:47.692Z,10.80
2019-05-06T09:30:47.679Z,10.30
2019-05-06T09:31:47.671Z,11.40
2019-05-06T09:32:47.657Z,10.90
2019-05-06T09:33:47.674Z,13.10
2019-05-06T09:34:47.633Z,9.70
2019-05-06T09:35:47.624Z,9.10
2019-05-06T09:36:52.006Z,10.20
2019-05-06T09:37:48.599Z,10.50
2019-05-06T09:38:47.648Z,9.40
2019-05-06T09:39:47.592Z,9.00
2019-05-06T09:40:47.571Z,10.50
2019-05-06T09:41:48.954Z,10.90
2019-05-06T09:42:47.550Z,9.50
2019-05-06T09:43:47.562Z,9.60
2019-05-06T09:44:50.403Z,8.80
2019-05-06T09:45:47.520Z,11.70
2019-05-06T09:46:47.511Z,10.30
2019-05-06T09:47:47.498Z,9.30
2019-05-06T09:48:47.510Z,8.80
2019-05-06T09:49:47.503Z,8.70
2019-05-06T09:50:47.472Z,9.50
2019-05-06T09:51:47.456Z,7.80
2019-05-06T09:52:47.448Z,7.70
2019-05-06T09:53:47.436Z,9.30
2019-05-06T09:54:47.453Z,7.20
2019-05-06T09:55:47.417Z,11.50
2019-05-06T09:56:47.404Z,11.90
2019-05-06T09:57:47.396Z,7.90
2019-05-06T09:58:47.391Z,9.20
2019-05-06T09:59:47.398Z,7.60
2019-05-06T10:00:47.363Z,7.90
2019-05-06T10:01:47.358Z,9.40
2019-05-06T10:02:49.494Z,9.00
2019-05-06T10:03:47.336Z,29.60
2019-05-06T10:04:47.349Z,9.70
2019-05-06T10:05:47.316Z,10.30
2019-05-06T10:06:56.355Z,7.00
2019-05-06T10:07:48.292Z,8.70
2019-05-06T10:08:47.284Z,7.80
2019-05-06T10:09:47.299Z,9.00
2019-05-06T10:10:56.823Z,11.00
2019-05-06T10:11:48.253Z,10.00
2019-05-06T10:12:47.240Z,11.30
2019-05-06T10:13:47.235Z,10.90
2019-05-06T10:14:47.244Z,12.50
2019-05-06T10:15:47.212Z,8.70
2019-05-06T10:16:47.203Z,10.70
2019-05-06T10:17:47.191Z,9.50
2019-05-06T10:18:47.179Z,9.30
2019-05-06T10:19:47.192Z,12.00
2019-05-06T10:20:47.155Z,8.90
2019-05-06T10:21:47.152Z,7.70
2019-05-06T10:22:47.140Z,10.90
2019-05-06T10:23:47.122Z,8.80
2019-05-06T10:24:47.205Z,9.80
2019-05-06T10:25:47.112Z,8.40
2019-05-06T10:26:47.094Z,7.60
2019-05-06T10:27:47.083Z,10.60
2019-05-06T10:28:47.070Z,7.90
2019-05-06T10:29:47.108Z,9.70
2019-05-06T10:30:47.063Z,9.00
2019-05-06T10:31:47.033Z,9.30
2019-05-06T10:32:47.035Z,9.50
2019-05-06T10:33:47.023Z,10.60
2019-05-06T10:34:47.041Z,8.10
2019-05-06T10:35:46.999Z,8.50
2019-05-06T10:36:46.992Z,8.70
2019-05-06T10:37:46.979Z,7.10
2019-05-06T10:38:46.966Z,9.40
2019-05-06T10:39:46.998Z,11.90
2019-05-06T10:40:59.655Z,8.90
2019-05-06T10:41:47.960Z,9.20
2019-05-06T10:42:46.936Z,9.30
2019-05-06T10:43:46.935Z,9.00
2019-05-06T10:44:46.922Z,11.70
2019-05-06T10:45:46.958Z,8.10
2019-05-06T10:46:46.883Z,8.60
2019-05-06T10:47:46.911Z,11.20
2019-05-06T10:48:46.872Z,8.00
2019-05-06T10:49:46.860Z,10.00
2019-05-06T10:50:46.866Z,9.00
2019-05-06T10:51:46.908Z,8.80
2019-05-06T10:52:46.918Z,7.90
2019-05-06T10:53:46.911Z,9.40
2019-05-06T10:54:47.325Z,8.30
2019-05-06T10:55:46.846Z,9.30
2019-05-06T10:56:53.828Z,8.00
2019-05-06T10:57:47.768Z,7.00
2019-05-06T10:58:46.759Z,8.10
2019-05-06T10:59:46.756Z,8.20
2019-05-06T11:00:46.779Z,7.20
2019-05-06T11:01:47.331Z,8.30
2019-05-06T11:02:46.718Z,7.40
2019-05-06T11:03:46.706Z,7.40
2019-05-06T11:04:46.694Z,8.70
2019-05-06T11:05:46.710Z,8.00
2019-05-06T11:06:46.683Z,7.80
2019-05-06T11:07:46.666Z,9.70
2019-05-06T11:08:46.659Z,8.50
2019-05-06T11:09:46.644Z,5.90
2019-05-06T11:10:46.663Z,7.30
2019-05-06T11:11:46.626Z,5.70
2019-05-06T11:12:46.627Z,6.30
2019-05-06T11:13:46.601Z,4.80
2019-05-06T11:14:46.598Z,5.90
2019-05-06T11:15:46.607Z,5.80
2019-05-06T11:16:46.571Z,5.60
2019-05-06T11:17:46.561Z,5.00
2019-05-06T11:18:46.552Z,7.10
2019-05-06T11:19:46.546Z,5.40
2019-05-06T11:20:46.561Z,5.90
2019-05-06T11:21:46.521Z,6.20
2019-05-06T11:22:46.511Z,7.60
2019-05-06T11:23:46.504Z,5.00
2019-05-06T11:24:46.496Z,6.30
2019-05-06T11:25:46.613Z,7.60
2019-05-06T11:26:46.484Z,6.70
2019-05-06T11:27:46.459Z,6.60
2019-05-06T11:28:46.450Z,6.70
2019-05-06T11:29:46.432Z,7.10
2019-05-06T11:30:46.466Z,9.80
2019-05-06T11:31:46.415Z,8.70
2019-05-06T11:32:46.407Z,8.10
2019-05-06T11:33:46.396Z,8.80
2019-05-06T11:34:46.382Z,9.30
2019-05-06T11:35:46.379Z,6.90
2019-05-06T11:36:46.389Z,7.20
2019-05-06T11:37:50.602Z,7.00
2019-05-06T11:38:48.564Z,8.00
2019-05-06T11:39:46.325Z,7.70
2019-05-06T11:40:46.318Z,7.60
2019-05-06T11:42:05.274Z,5.90
2019-05-06T11:42:47.303Z,7.60
2019-05-06T11:43:46.291Z,8.30
2019-05-06T11:44:46.295Z,9.10
2019-05-06T11:45:46.266Z,9.10
2019-05-06T11:46:46.287Z,6.90
2019-05-06T11:47:46.252Z,9.20
2019-05-06T11:48:46.239Z,8.60
2019-05-06T11:49:46.235Z,8.80
2019-05-06T11:50:46.216Z,8.30
2019-05-06T11:51:46.241Z,6.80
2019-05-06T11:52:46.200Z,7.80
2019-05-06T11:53:46.189Z,7.10
2019-05-06T11:54:46.175Z,8.00
2019-05-06T11:55:46.169Z,7.60
2019-05-06T11:56:50.871Z,8.50
2019-05-06T11:57:47.150Z,7.30
2019-05-06T11:58:46.141Z,6.40
2019-05-06T11:59:46.128Z,8.00
2019-05-06T12:00:46.111Z,8.50
2019-05-06T12:01:46.138Z,6.90
2019-05-06T12:02:48.642Z,6.20
2019-05-06T12:03:46.085Z,6.60
2019-05-06T12:04:46.079Z,5.70
2019-05-06T12:05:46.058Z,7.10
2019-05-06T12:06:46.077Z,7.20
2019-05-06T12:08:00.976Z,7.30
2019-05-06T12:08:47.029Z,7.20
2019-05-06T12:09:46.022Z,7.00
2019-05-06T12:10:46.016Z,5.90
2019-05-06T12:11:46.027Z,6.60
2019-05-06T12:12:45.993Z,6.70
2019-05-06T12:13:45.980Z,6.40
2019-05-06T12:14:45.969Z,5.70
2019-05-06T12:15:45.958Z,6.20
2019-05-06T12:16:45.987Z,6.70
2019-05-06T12:17:45.935Z,6.50
2019-05-06T12:18:45.929Z,6.20
2019-05-06T12:19:45.919Z,7.00
2019-05-06T12:20:45.904Z,7.50
2019-05-06T12:21:45.898Z,7.40
2019-05-06T12:22:45.913Z,5.30
2019-05-06T12:23:45.878Z,5.90
2019-05-06T12:24:45.871Z,6.90
2019-05-06T12:25:46.327Z,5.70
2019-05-06T12:26:45.845Z,7.90
2019-05-06T12:27:45.859Z,6.60
2019-05-06T12:28:45.810Z,7.90
2019-05-06T12:29:45.800Z,6.40
2019-05-06T12:30:45.793Z,7.60
2019-05-06T12:31:45.775Z,6.20
2019-05-06T12:32:45.801Z,8.00
2019-05-06T12:33:45.762Z,8.30
2019-05-06T12:34:45.759Z,7.00
2019-05-06T12:35:45.750Z,5.70
2019-05-06T12:36:45.739Z,6.70
2019-05-06T12:37:45.751Z,8.60
2019-05-06T12:38:45.718Z,7.20
2019-05-06T12:39:45.716Z,6.50
2019-05-06T12:40:45.706Z,7.70
2019-05-06T12:41:45.692Z,9.00
2019-05-06T12:42:45.711Z,6.60
2019-05-06T12:43:45.670Z,8.30
2019-05-06T12:44:45.681Z,7.50
2019-05-06T12:45:45.643Z,7.30
2019-05-06T12:46:45.634Z,6.80
2019-05-06T12:47:45.622Z,8.20
2019-05-06T12:48:45.635Z,5.90
2019-05-06T12:49:45.612Z,7.90
2019-05-06T12:50:45.597Z,6.30
2019-05-06T12:51:45.581Z,8.60
2019-05-06T12:52:45.577Z,8.50
2019-05-06T12:53:45.592Z,6.70
2019-05-06T12:54:45.562Z,7.80
2019-05-06T12:55:45.549Z,8.00
2019-05-06T12:56:45.527Z,7.70
2019-05-06T12:57:45.529Z,6.70
2019-05-06T12:58:45.535Z,6.90